Latest  Newer  Older  Last 2 hours animation  Current image  Latest image 
Rain/snow radar  Infrared sat images 
Real-time lightning map

All time is UTC (add 2 hours to UTC in wintertime, 3 hours to UTC in DST for Latvia local time)

2018/07/20 08:20 EVRA 200820Z 29005KT 230V020 CAVOK 25/18 Q1007 NOSIG
2018/07/20 08:20 EVLA 200820Z AUTO 32006KT 290V350 9999 NCD 25/16 Q1008
2018/07/20 08:20 EVVA 200820Z AUTO 31007KT CAVOK 24/19 Q1008
2018/07/20 08:20 EYKA 200820Z 32005KT 260V070 CAVOK 25/18 Q1007
2018/07/20 08:20 EYPA 200820Z 29004KT 240V360 9999 BCFG BKN002 BKN170 20/18 Q1009
2018/07/20 08:20 EYSA 200820Z 33004KT 280V020 CAVOK 26/16 Q1008 BLU NOSIG
2018/07/20 08:20 EYVI 200820Z 33008KT 9999 SCT021 23/18 Q1007 NOSIG
2018/07/20 07:50 EEKA 200750Z 03006KT CAVOK 19/15 Q1009
2018/07/20 07:50 EEKE 200750Z 35003KT 300V380 CAVOK 24/18 Q1008
2018/07/20 06:50 EEPU 200650Z 02003KT 320V080 CAVOK 24/18 Q1008
2018/07/20 08:20 EETN 200820Z 07006KT 8000 -SHRA BKN007 SCT014 FEW020CB 19/18 Q1009 TEMPO 4000 SHRA
2018/07/20 07:50 EETU 200750Z 03005KT 330V070 9999 SCT019 BKN025 24/17 Q1007
   RIGA AIRPORT     EVRA               56 55N  023 58E   10   X     T          6 LV
   LIEPAJA INTL     EVLA        26406  56 31N  021 06E    4   X                8 LV
   VENTPILS         EVVA               57 21N  021 33E    6   X                8 LV
   KAUNAS           EYKA               54 54N  023 55E   77   X     T          6 LT
   PALANGA INTL     EYPA               55 55N  021 03E   10   X                6 LT
   SIAULIAI INTL    EYSA               55 54N  023 24E  135   X     T          6 LT
   VILNIUS INTL     EYVI        26730  54 38N  025 17E  197   X     T          6 LT
   KARDLA           EEKA        26116  58 59N  022 50E    4   X                8 EE
   KURESSAARE       EEKE               58 14N  022 31E    4   X                8 EE
   PARNU            EEPU               58 25N  024 28E   14   X                8 EE
   TALLINN          EETN        26038  59 24N  024 49E   40   X     T          8 EE
   TARTU            EETU               58 19N  026 41E   67   X                8 EE

cloud coverage image from sat24.com and METAR data from weather.noaa.gov